Time;durP1;ratioP1;P1;durP2;ratioP2;P2;SDS_P1;SDS_P2;PMS_P1;PMS_P2;Temp;Humidity;BMP_temperature;BMP_pressure;BME280_temperature;BME280_humidity;BME280_pressure;Samples;Min_cycle;Max_cycle;Signal;HPM_P1;HPM_P2
2021/09/11 00:00:33;;;;;;;9.95;6.70;;;;;;;;;;4341302;33;20206;-85
2021/09/11 00:02:58;;;;;;;12.82;7.18;;;;;;;;;;4336712;33;20221;-85
2021/09/11 00:05:26;;;;;;;13.27;7.85;;;;;;;;;;4347730;33;20442;-86
2021/09/11 00:07:51;;;;;;;14.87;8.15;;;;;;;;;;4347343;33;20514;-85
2021/09/11 00:10:21;;;;;;;17.67;9.57;;;;;;;;;;4346750;33;20218;-85
2021/09/11 00:12:50;;;;;;;17.05;9.27;;;;;;;;;;4333317;33;20209;-85
2021/09/11 00:15:18;;;;;;;19.30;10.43;;;;;;;;;;4346971;33;20158;-85
2021/09/11 00:17:44;;;;;;;16.37;9.43;;;;;;;;;;4347335;33;20151;-85
2021/09/11 00:20:10;;;;;;;15.18;9.60;;;;;;;;;;4347652;33;20533;-85
2021/09/11 00:22:35;;;;;;;14.07;9.45;;;;;;;;;;4337197;33;20174;-85
2021/09/11 00:25:03;;;;;;;16.80;10.27;;;;;;;;;;4338879;33;20159;-87
2021/09/11 00:27:28;;;;;;;19.35;10.30;;;;;;;;;;4352173;33;20445;-86
2021/09/11 00:30:06;;;;;;;17.40;10.07;;;;;;;;;;4351833;33;20185;-86
2021/09/11 00:32:35;;;;;;;19.23;9.98;;;;;;;;;;4352848;33;20131;-85
2021/09/11 00:35:06;;;;;;;14.23;9.57;;;;;;;;;;4342658;33;20221;-86
2021/09/11 00:37:43;;;;;;;17.30;10.32;;;;;;;;;;4343203;33;20197;-87
2021/09/11 00:40:09;;;;;;;22.70;10.70;;;;;;;;;;4355785;33;20233;-86
2021/09/11 00:42:35;;;;;;;18.92;10.98;;;;;;;;;;4354459;33;20128;-85
2021/09/11 00:45:00;;;;;;;19.10;11.25;;;;;;;;;;4350305;33;20548;-85
2021/09/11 00:47:25;;;;;;;19.48;11.85;;;;;;;;;;4350018;33;20482;-85
2021/09/11 00:49:53;;;;;;;21.30;11.73;;;;;;;;;;4336265;33;20163;-85
2021/09/11 00:52:21;;;;;;;19.00;12.27;;;;;;;;;;4334897;33;20151;-85
2021/09/11 00:54:46;;;;;;;19.35;11.73;;;;;;;;;;4337377;33;20206;-85
2021/09/11 00:57:12;;;;;;;19.17;11.38;;;;;;;;;;4348039;33;20143;-85
2021/09/11 00:59:40;;;;;;;24.05;14.38;;;;;;;;;;4348514;33;20244;-86
2021/09/11 01:02:05;;;;;;;21.42;13.52;;;;;;;;;;4348167;33;20158;-85
2021/09/11 01:04:33;;;;;;;22.90;12.63;;;;;;;;;;4348071;33;20454;-86
2021/09/11 01:06:59;;;;;;;24.17;12.80;;;;;;;;;;4347403;33;20449;-85
2021/09/11 01:09:24;;;;;;;23.38;12.55;;;;;;;;;;4348058;33;20132;-85
2021/09/11 01:11:50;;;;;;;24.12;12.65;;;;;;;;;;4347604;33;20124;-85
2021/09/11 01:14:16;;;;;;;23.27;12.48;;;;;;;;;;4347240;33;20498;-85
2021/09/11 01:16:41;;;;;;;26.75;12.60;;;;;;;;;;4333686;33;20160;-85
2021/09/11 01:19:06;;;;;;;19.90;12.50;;;;;;;;;;4347643;33;20127;-85
2021/09/11 01:21:32;;;;;;;21.80;11.88;;;;;;;;;;4347063;33;20143;-86
2021/09/11 01:23:57;;;;;;;21.60;11.93;;;;;;;;;;4333880;33;20187;-85
2021/09/11 01:26:22;;;;;;;21.80;12.88;;;;;;;;;;4346647;33;20124;-86
2021/09/11 01:28:48;;;;;;;19.77;12.27;;;;;;;;;;4347118;33;20127;-86
2021/09/11 01:31:13;;;;;;;22.48;12.48;;;;;;;;;;4347818;33;20132;-85
2021/09/11 01:33:38;;;;;;;20.10;11.93;;;;;;;;;;4348073;33;20132;-85
2021/09/11 01:36:03;;;;;;;19.05;11.35;;;;;;;;;;4346932;33;20127;-85
2021/09/11 01:38:29;;;;;;;18.30;10.90;;;;;;;;;;4347347;33;20124;-85
2021/09/11 01:40:54;;;;;;;17.45;10.25;;;;;;;;;;4347472;33;20170;-85
2021/09/11 01:43:29;;;;;;;17.25;10.93;;;;;;;;;;4333065;33;20156;-87
2021/09/11 01:45:57;;;;;;;17.12;9.95;;;;;;;;;;4346436;33;20146;-87
2021/09/11 01:48:23;;;;;;;15.85;10.70;;;;;;;;;;4333044;33;20171;-85
2021/09/11 01:50:48;;;;;;;17.15;10.35;;;;;;;;;;4346546;33;20494;-86
2021/09/11 01:53:18;;;;;;;18.08;11.25;;;;;;;;;;4332857;33;20190;-86
2021/09/11 01:55:43;;;;;;;24.10;12.25;;;;;;;;;;4346574;33;20439;-86
2021/09/11 01:58:09;;;;;;;21.15;11.80;;;;;;;;;;4346838;33;20583;-84
2021/09/11 02:00:39;;;;;;;21.02;11.15;;;;;;;;;;4346678;33;20128;-85
2021/09/11 02:03:04;;;;;;;24.92;11.27;;;;;;;;;;4347026;33;20127;-85
2021/09/11 02:05:33;;;;;;;22.92;11.02;;;;;;;;;;4346286;33;20132;-85
2021/09/11 02:07:58;;;;;;;21.23;11.20;;;;;;;;;;4345948;33;20258;-87
2021/09/11 02:10:27;;;;;;;21.92;10.40;;;;;;;;;;4345933;33;20144;-86
2021/09/11 02:12:57;;;;;;;19.42;10.77;;;;;;;;;;4345941;33;20143;-86
2021/09/11 02:15:22;;;;;;;19.98;11.40;;;;;;;;;;4321125;33;20152;-86
2021/09/11 02:17:48;;;;;;;19.60;10.20;;;;;;;;;;4332573;33;20221;-86
2021/09/11 02:20:13;;;;;;;22.70;11.07;;;;;;;;;;4332949;33;20178;-86
2021/09/11 02:22:38;;;;;;;19.15;10.65;;;;;;;;;;4347079;33;20542;-86
2021/09/11 02:25:10;;;;;;;20.20;10.13;;;;;;;;;;4333123;33;20128;-86
2021/09/11 02:27:35;;;;;;;21.98;12.37;;;;;;;;;;4346301;33;20479;-86
2021/09/11 02:30:01;;;;;;;25.05;11.35;;;;;;;;;;4332421;33;20230;-86
2021/09/11 02:32:26;;;;;;;26.45;11.88;;;;;;;;;;4345856;33;20128;-86
2021/09/11 02:34:52;;;;;;;19.20;11.23;;;;;;;;;;4345883;33;20124;-86
2021/09/11 02:37:17;;;;;;;22.85;12.45;;;;;;;;;;4346216;33;20171;-86
2021/09/11 02:40:02;;;;;;;22.48;11.98;;;;;;;;;;4346410;33;20124;-86
2021/09/11 02:42:28;;;;;;;26.50;11.65;;;;;;;;;;4345615;33;20216;-86
2021/09/11 02:44:53;;;;;;;22.87;12.02;;;;;;;;;;4345643;33;20131;-86
2021/09/11 02:47:20;;;;;;;21.12;11.38;;;;;;;;;;4332209;33;20155;-86
2021/09/11 02:49:45;;;;;;;22.40;12.60;;;;;;;;;;4345536;33;20148;-85
2021/09/11 02:52:10;;;;;;;22.60;12.30;;;;;;;;;;4346043;33;20158;-86
2021/09/11 02:54:36;;;;;;;24.55;13.27;;;;;;;;;;4346432;33;20135;-86
2021/09/11 02:57:03;;;;;;;27.60;12.82;;;;;;;;;;4345595;33;20154;-85
2021/09/11 02:59:29;;;;;;;26.35;13.50;;;;;;;;;;4345760;33;20187;-85
2021/09/11 03:01:54;;;;;;;32.05;13.57;;;;;;;;;;4338605;33;20155;-85
2021/09/11 03:04:25;;;;;;;25.95;15.65;;;;;;;;;;4359351;33;20183;-84
2021/09/11 03:06:50;;;;;;;25.75;13.82;;;;;;;;;;4359156;33;20123;-84
2021/09/11 03:09:15;;;;;;;27.35;15.27;;;;;;;;;;4358150;33;20158;-85
2021/09/11 03:11:40;;;;;;;23.90;14.40;;;;;;;;;;4359232;33;20112;-85
2021/09/11 03:14:06;;;;;;;25.90;13.38;;;;;;;;;;4345674;33;20143;-85
2021/09/11 03:16:31;;;;;;;28.62;13.93;;;;;;;;;;4345625;33;20185;-84
2021/09/11 03:18:56;;;;;;;30.60;15.05;;;;;;;;;;4345907;33;20182;-85
2021/09/11 03:21:21;;;;;;;30.88;15.65;;;;;;;;;;4345239;33;20170;-85
2021/09/11 03:23:49;;;;;;;29.33;14.90;;;;;;;;;;4345679;33;20625;-85
2021/09/11 03:26:17;;;;;;;30.40;15.15;;;;;;;;;;4345587;33;20185;-85
2021/09/11 03:28:42;;;;;;;28.92;14.27;;;;;;;;;;4345675;33;20158;-85
2021/09/11 03:31:08;;;;;;;33.42;15.70;;;;;;;;;;4345582;33;20234;-85
2021/09/11 03:33:42;;;;;;;29.98;14.70;;;;;;;;;;4345612;33;20131;-86
2021/09/11 03:36:07;;;;;;;26.35;15.93;;;;;;;;;;4332880;33;20355;-85
2021/09/11 03:38:33;;;;;;;29.40;15.05;;;;;;;;;;4345853;33;20128;-85
2021/09/11 03:40:58;;;;;;;28.70;15.45;;;;;;;;;;4345354;33;20195;-85
2021/09/11 03:43:23;;;;;;;33.28;15.80;;;;;;;;;;4346398;33;20186;-84
2021/09/11 03:45:52;;;;;;;22.20;13.68;;;;;;;;;;4331865;33;20498;-85
2021/09/11 03:48:17;;;;;;;26.65;14.13;;;;;;;;;;4345334;33;20140;-84
2021/09/11 03:50:42;;;;;;;29.92;13.57;;;;;;;;;;4345147;33;20178;-84
2021/09/11 03:53:07;;;;;;;27.75;14.32;;;;;;;;;;4345074;33;20167;-84
2021/09/11 03:55:33;;;;;;;31.05;14.10;;;;;;;;;;4346694;33;20127;-85
2021/09/11 03:57:58;;;;;;;33.10;14.70;;;;;;;;;;4348572;33;20131;-85
2021/09/11 04:00:23;;;;;;;26.20;13.30;;;;;;;;;;4348169;33;20135;-87
2021/09/11 04:02:49;;;;;;;31.25;15.13;;;;;;;;;;4334863;33;20677;-86
2021/09/11 04:05:14;;;;;;;31.80;14.05;;;;;;;;;;4348906;33;20123;-86
2021/09/11 04:07:39;;;;;;;29.98;17.05;;;;;;;;;;4348217;33;20219;-86
2021/09/11 04:10:05;;;;;;;33.28;15.32;;;;;;;;;;4347804;33;20580;-84
2021/09/11 04:12:30;;;;;;;29.02;15.63;;;;;;;;;;4347975;33;20165;-85
2021/09/11 04:14:55;;;;;;;41.90;18.00;;;;;;;;;;4348231;33;20146;-84
2021/09/11 04:17:20;;;;;;;36.05;17.67;;;;;;;;;;4347741;33;20615;-85
2021/09/11 04:19:46;;;;;;;40.12;18.27;;;;;;;;;;4348087;33;20534;-83
2021/09/11 04:22:12;;;;;;;36.70;20.00;;;;;;;;;;4347884;33;20179;-84
2021/09/11 04:24:37;;;;;;;35.45;18.30;;;;;;;;;;4347481;33;20534;-85
2021/09/11 04:27:02;;;;;;;29.70;16.75;;;;;;;;;;4333942;33;20637;-86
2021/09/11 04:29:28;;;;;;;37.15;18.42;;;;;;;;;;4334331;33;20605;-84
2021/09/11 04:31:53;;;;;;;39.28;17.65;;;;;;;;;;4348036;33;20143;-85
2021/09/11 04:34:18;;;;;;;34.05;17.35;;;;;;;;;;4347578;33;20170;-85
2021/09/11 04:36:43;;;;;;;32.83;14.95;;;;;;;;;;4348050;33;20131;-85
2021/09/11 04:39:09;;;;;;;28.80;15.50;;;;;;;;;;4347298;33;20211;-85
2021/09/11 04:41:34;;;;;;;24.48;13.98;;;;;;;;;;4347880;33;20240;-85
2021/09/11 04:43:59;;;;;;;23.70;13.02;;;;;;;;;;4347851;33;20534;-86
2021/09/11 04:46:24;;;;;;;29.45;14.38;;;;;;;;;;4347580;33;20128;-86
2021/09/11 04:48:49;;;;;;;25.23;13.82;;;;;;;;;;4347134;33;20143;-86
2021/09/11 04:51:15;;;;;;;19.60;12.40;;;;;;;;;;4347475;33;20174;-87
2021/09/11 04:53:40;;;;;;;22.35;13.80;;;;;;;;;;4347067;33;20144;-85
2021/09/11 04:56:05;;;;;;;24.73;13.73;;;;;;;;;;4333831;33;20178;-85
2021/09/11 04:58:31;;;;;;;23.75;13.25;;;;;;;;;;4347800;33;20178;-83
2021/09/11 05:00:56;;;;;;;22.37;12.35;;;;;;;;;;4347195;33;20158;-84
2021/09/11 05:03:21;;;;;;;25.23;14.32;;;;;;;;;;4333257;33;20589;-85
2021/09/11 05:05:46;;;;;;;25.80;15.05;;;;;;;;;;4347004;33;20175;-85
2021/09/11 05:08:17;;;;;;;30.30;14.65;;;;;;;;;;4347483;33;20542;-85
2021/09/11 05:10:42;;;;;;;22.40;14.10;;;;;;;;;;4347915;33;20151;-84
2021/09/11 05:13:07;;;;;;;22.92;13.05;;;;;;;;;;4346692;33;20478;-85
2021/09/11 05:15:35;;;;;;;21.70;13.65;;;;;;;;;;4347428;33;20131;-85
2021/09/11 05:18:00;;;;;;;28.33;13.95;;;;;;;;;;4347021;33;20132;-84
2021/09/11 05:20:26;;;;;;;22.73;12.68;;;;;;;;;;4346952;33;20170;-83
2021/09/11 05:22:51;;;;;;;25.05;13.88;;;;;;;;;;4346896;33;20134;-84
2021/09/11 05:25:16;;;;;;;20.62;13.27;;;;;;;;;;4346785;33;20166;-85
2021/09/11 05:27:41;;;;;;;26.83;14.55;;;;;;;;;;4333311;33;20646;-85
2021/09/11 05:30:07;;;;;;;28.80;14.68;;;;;;;;;;4347135;33;20132;-86
2021/09/11 05:32:33;;;;;;;23.20;13.88;;;;;;;;;;4346557;33;20135;-85
2021/09/11 05:34:58;;;;;;;26.10;15.70;;;;;;;;;;4347407;33;20151;-85
2021/09/11 05:37:23;;;;;;;28.73;15.93;;;;;;;;;;4346270;33;20132;-80
2021/09/11 05:39:48;;;;;;;27.17;15.18;;;;;;;;;;4333526;33;20310;-80
2021/09/11 05:42:13;;;;;;;26.52;13.93;;;;;;;;;;4347072;33;20140;-84
2021/09/11 05:44:39;;;;;;;27.70;15.48;;;;;;;;;;4346860;33;20159;-85
2021/09/11 05:47:04;;;;;;;30.02;15.57;;;;;;;;;;4346802;33;20450;-85
2021/09/11 05:49:29;;;;;;;27.02;15.93;;;;;;;;;;4332663;33;20159;-85
2021/09/11 05:51:55;;;;;;;25.25;15.30;;;;;;;;;;4332961;33;20182;-85
2021/09/11 05:54:20;;;;;;;30.35;17.65;;;;;;;;;;4346393;33;20132;-82
2021/09/11 05:56:45;;;;;;;28.85;15.43;;;;;;;;;;4346402;33;20155;-85
2021/09/11 05:59:10;;;;;;;35.08;16.80;;;;;;;;;;4347112;33;20186;-85
2021/09/11 06:01:36;;;;;;;32.75;17.02;;;;;;;;;;4332765;33;20193;-85
2021/09/11 06:04:03;;;;;;;33.00;16.75;;;;;;;;;;4332532;33;20163;-84
2021/09/11 06:06:29;;;;;;;33.80;18.87;;;;;;;;;;4346511;33;20139;-84
2021/09/11 06:08:57;;;;;;;33.70;16.55;;;;;;;;;;4346588;33;20139;-85
2021/09/11 06:11:25;;;;;;;29.98;16.77;;;;;;;;;;4346250;33;20150;-85
2021/09/11 06:13:53;;;;;;;29.80;15.73;;;;;;;;;;4346942;33;20162;-85
2021/09/11 06:16:18;;;;;;;33.15;16.58;;;;;;;;;;4350838;33;20198;-84
2021/09/11 06:18:44;;;;;;;33.65;17.42;;;;;;;;;;4336867;33;20151;-83
2021/09/11 06:21:09;;;;;;;36.15;17.27;;;;;;;;;;4350102;33;20131;-86
2021/09/11 06:23:35;;;;;;;32.20;16.87;;;;;;;;;;4346483;33;20600;-85
2021/09/11 06:26:02;;;;;;;30.60;17.02;;;;;;;;;;4346524;33;20128;-85
2021/09/11 06:28:27;;;;;;;30.58;16.55;;;;;;;;;;4347004;33;20170;-85
2021/09/11 06:30:53;;;;;;;30.65;16.25;;;;;;;;;;4346871;33;20128;-84
2021/09/11 06:33:19;;;;;;;28.48;16.25;;;;;;;;;;4346649;33;20139;-84
2021/09/11 06:35:44;;;;;;;31.77;15.77;;;;;;;;;;4345918;33;20550;-85
2021/09/11 06:38:09;;;;;;;29.20;17.50;;;;;;;;;;4332564;33;20206;-82
2021/09/11 06:40:34;;;;;;;35.17;16.42;;;;;;;;;;4332791;33;20151;-85
2021/09/11 06:43:00;;;;;;;26.77;14.98;;;;;;;;;;4346044;33;20143;-86
2021/09/11 06:45:25;;;;;;;23.62;15.68;;;;;;;;;;4332762;33;20585;-84
2021/09/11 06:47:50;;;;;;;27.60;17.33;;;;;;;;;;4345795;33;20170;-85
2021/09/11 06:50:19;;;;;;;24.23;15.60;;;;;;;;;;4345531;33;20177;-84
2021/09/11 06:52:52;;;;;;;27.70;15.13;;;;;;;;;;4346019;33;20466;-84
2021/09/11 06:55:17;;;;;;;27.55;15.55;;;;;;;;;;4332087;33;20202;-84
2021/09/11 06:57:43;;;;;;;26.98;15.07;;;;;;;;;;4345566;33;20131;-85
2021/09/11 07:00:08;;;;;;;23.33;13.32;;;;;;;;;;4346451;33;20178;-81
2021/09/11 07:02:33;;;;;;;26.20;13.70;;;;;;;;;;4345900;33;20190;-81
2021/09/11 07:04:58;;;;;;;27.03;14.97;;;;;;;;;;4331299;33;20167;-80
2021/09/11 07:07:24;;;;;;;31.73;16.30;;;;;;;;;;4346437;33;20228;-82
2021/09/11 07:09:49;;;;;;;35.15;16.25;;;;;;;;;;4346147;33;20154;-84
2021/09/11 07:12:16;;;;;;;33.42;16.10;;;;;;;;;;4332166;33;20249;-85
2021/09/11 07:14:41;;;;;;;32.08;15.73;;;;;;;;;;4345356;33;20136;-84
2021/09/11 07:17:06;;;;;;;28.15;14.20;;;;;;;;;;4345785;33;20182;-84
2021/09/11 07:19:32;;;;;;;25.15;15.07;;;;;;;;;;4345973;33;20252;-84
2021/09/11 07:21:57;;;;;;;29.75;15.70;;;;;;;;;;4345191;33;20261;-84
2021/09/11 07:24:25;;;;;;;29.10;15.25;;;;;;;;;;4345708;33;20191;-83
2021/09/11 07:26:53;;;;;;;27.55;14.10;;;;;;;;;;4345521;33;20538;-87
2021/09/11 07:29:18;;;;;;;26.80;15.55;;;;;;;;;;4345793;33;20588;-84
2021/09/11 07:31:44;;;;;;;29.67;14.82;;;;;;;;;;4348238;33;20128;-85
2021/09/11 07:34:09;;;;;;;30.17;16.42;;;;;;;;;;4348965;33;20159;-83
2021/09/11 07:36:35;;;;;;;29.17;15.20;;;;;;;;;;4348368;33;20234;-85
2021/09/11 07:39:03;;;;;;;28.00;14.43;;;;;;;;;;4348128;33;20136;-84
2021/09/11 07:41:28;;;;;;;30.67;14.73;;;;;;;;;;4348401;33;20186;-84
2021/09/11 07:43:59;;;;;;;24.87;13.60;;;;;;;;;;4348506;33;20463;-84
2021/09/11 07:46:25;;;;;;;30.40;15.27;;;;;;;;;;4335406;33;20158;-84
2021/09/11 07:48:50;;;;;;;30.55;14.73;;;;;;;;;;4348858;33;20640;-84
2021/09/11 07:51:16;;;;;;;29.67;15.60;;;;;;;;;;4336656;33;20478;-85
2021/09/11 07:53:41;;;;;;;25.83;14.48;;;;;;;;;;4334915;33;20139;-84
2021/09/11 07:56:18;;;;;;;27.08;14.57;;;;;;;;;;4334686;33;20208;-83
2021/09/11 07:58:43;;;;;;;27.00;14.45;;;;;;;;;;4335871;33;20143;-86
2021/09/11 08:01:08;;;;;;;31.80;16.92;;;;;;;;;;4324749;33;20207;-86
2021/09/11 08:03:39;;;;;;;30.83;15.90;;;;;;;;;;4326155;33;20191;-85
2021/09/11 08:06:08;;;;;;;30.90;16.37;;;;;;;;;;4337020;33;20235;-85
2021/09/11 08:08:39;;;;;;;36.28;16.02;;;;;;;;;;4323229;33;20511;-85
2021/09/11 08:11:06;;;;;;;29.63;15.40;;;;;;;;;;4321532;33;20159;-84
2021/09/11 08:13:32;;;;;;;31.60;16.67;;;;;;;;;;4333630;33;20157;-85
2021/09/11 08:15:59;;;;;;;27.42;17.65;;;;;;;;;;4333473;33;20194;-84
2021/09/11 08:18:27;;;;;;;26.77;16.27;;;;;;;;;;4333246;33;20128;-85
2021/09/11 08:20:53;;;;;;;29.75;18.70;;;;;;;;;;4321310;33;20494;-86
2021/09/11 08:23:18;;;;;;;31.85;16.65;;;;;;;;;;4334827;33;20211;-82
2021/09/11 08:25:50;;;;;;;31.20;17.48;;;;;;;;;;4321168;33;20152;-86
2021/09/11 08:28:18;;;;;;;30.10;16.65;;;;;;;;;;4333964;33;20154;-84
2021/09/11 08:30:50;;;;;;;28.45;15.98;;;;;;;;;;4334177;33;20211;-86
2021/09/11 08:33:18;;;;;;;28.58;16.27;;;;;;;;;;4334886;33;20243;-86
2021/09/11 08:35:44;;;;;;;34.35;16.90;;;;;;;;;;4320239;33;20537;-84
2021/09/11 08:38:09;;;;;;;34.72;17.62;;;;;;;;;;4333064;33;20133;-86
2021/09/11 08:40:35;;;;;;;33.13;17.75;;;;;;;;;;4319537;33;20175;-84
2021/09/11 08:43:01;;;;;;;29.77;16.77;;;;;;;;;;4332251;33;20174;-83
2021/09/11 08:45:27;;;;;;;31.00;17.75;;;;;;;;;;4319164;33;20156;-83
2021/09/11 08:47:58;;;;;;;33.30;17.30;;;;;;;;;;4332842;33;20166;-84
2021/09/11 08:50:23;;;;;;;32.28;17.15;;;;;;;;;;4339733;33;20485;-86
2021/09/11 08:52:52;;;;;;;26.62;16.33;;;;;;;;;;4347668;33;20155;-86
2021/09/11 08:55:21;;;;;;;26.00;17.62;;;;;;;;;;4347282;33;20254;-85
2021/09/11 08:58:10;;;;;;;27.17;17.42;;;;;;;;;;4347182;33;20591;-84
2021/09/11 09:00:48;;;;;;;27.80;15.77;;;;;;;;;;4334078;33;20152;-84
2021/09/11 09:03:30;;;;;;;27.45;17.08;;;;;;;;;;4347776;33;20135;-83
2021/09/11 09:06:16;;;;;;;24.77;15.65;;;;;;;;;;4347470;33;20132;-85
2021/09/11 09:08:45;;;;;;;32.40;17.77;;;;;;;;;;4334128;33;20479;-83
2021/09/11 09:11:16;;;;;;;26.95;15.75;;;;;;;;;;4347256;33;20131;-85
2021/09/11 09:14:01;;;;;;;26.77;16.27;;;;;;;;;;4347185;33;20140;-83
2021/09/11 09:16:28;;;;;;;25.98;15.07;;;;;;;;;;4333490;33;20159;-84
2021/09/11 09:18:53;;;;;;;23.33;16.08;;;;;;;;;;4347115;33;20193;-84
2021/09/11 09:21:24;;;;;;;22.90;15.20;;;;;;;;;;4347491;33;20136;-84
2021/09/11 09:23:51;;;;;;;25.17;15.38;;;;;;;;;;4335612;33;20172;-83
2021/09/11 09:26:17;;;;;;;22.05;15.10;;;;;;;;;;4350856;33;20131;-82
2021/09/11 09:28:57;;;;;;;24.52;14.68;;;;;;;;;;4333942;33;20209;-85
2021/09/11 09:31:22;;;;;;;20.60;14.27;;;;;;;;;;4347744;33;20147;-82
2021/09/11 09:33:48;;;;;;;21.90;14.90;;;;;;;;;;4347078;33;20581;-83
2021/09/11 09:36:13;;;;;;;22.05;15.10;;;;;;;;;;4348911;33;20151;-85
2021/09/11 09:38:42;;;;;;;18.70;14.07;;;;;;;;;;4336325;33;20251;-85
2021/09/11 09:41:11;;;;;;;23.60;17.05;;;;;;;;;;4351084;33;20194;-84
2021/09/11 09:43:47;;;;;;;18.75;13.93;;;;;;;;;;4337087;33;20185;-84
2021/09/11 09:46:13;;;;;;;20.52;14.18;;;;;;;;;;4335934;33;20226;-82
2021/09/11 09:48:39;;;;;;;19.02;13.62;;;;;;;;;;4347921;33;20197;-84
2021/09/11 09:51:25;;;;;;;20.48;14.43;;;;;;;;;;4335105;33;20497;-84
2021/09/11 09:53:50;;;;;;;17.02;13.35;;;;;;;;;;4318600;33;20168;-83
2021/09/11 09:56:16;;;;;;;23.27;13.98;;;;;;;;;;4331514;33;20227;-84
2021/09/11 09:58:44;;;;;;;24.37;15.15;;;;;;;;;;4331805;33;20150;-83
2021/09/11 10:01:12;;;;;;;23.98;15.65;;;;;;;;;;4331925;33;20285;-84
2021/09/11 10:03:49;;;;;;;24.87;16.08;;;;;;;;;;4331404;33;20171;-83
2021/09/11 10:06:26;;;;;;;22.35;14.25;;;;;;;;;;4318470;33;20566;-84
2021/09/11 10:09:05;;;;;;;21.37;14.73;;;;;;;;;;4317825;33;20501;-83
2021/09/11 10:11:51;;;;;;;22.13;15.35;;;;;;;;;;4331641;33;20174;-84
2021/09/11 10:14:20;;;;;;;19.77;15.80;;;;;;;;;;4318179;33;20549;-84
2021/09/11 10:16:55;;;;;;;20.95;14.50;;;;;;;;;;4318046;33;20647;-85
2021/09/11 10:19:27;;;;;;;21.58;14.20;;;;;;;;;;4331968;33;20176;-83
2021/09/11 10:22:21;;;;;;;24.98;18.15;;;;;;;;;;4331260;33;20128;-85
2021/09/11 10:25:00;;;;;;;20.23;15.95;;;;;;;;;;4322806;33;20493;-83
2021/09/11 10:27:33;;;;;;;19.52;15.80;;;;;;;;;;4318004;33;20186;-83
2021/09/11 10:30:28;;;;;;;20.80;16.67;;;;;;;;;;4331863;33;20178;-83
2021/09/11 10:32:55;;;;;;;22.35;16.20;;;;;;;;;;4315897;33;20210;-82
2021/09/11 10:35:21;;;;;;;21.48;13.90;;;;;;;;;;4317643;33;20544;-85
2021/09/11 10:37:48;;;;;;;22.05;15.20;;;;;;;;;;4331180;33;20218;-83
2021/09/11 10:40:19;;;;;;;19.48;14.52;;;;;;;;;;4331370;33;20211;-83
2021/09/11 10:43:09;;;;;;;19.73;14.45;;;;;;;;;;4331613;33;20582;-83
2021/09/11 10:45:42;;;;;;;21.23;14.90;;;;;;;;;;4323797;33;20255;-83
2021/09/11 10:48:26;;;;;;;20.92;15.63;;;;;;;;;;4337094;33;20140;-84
2021/09/11 10:50:54;;;;;;;16.90;13.80;;;;;;;;;;4347064;33;20566;-82
2021/09/11 10:53:20;;;;;;;19.12;14.02;;;;;;;;;;4337755;33;20182;-83
2021/09/11 10:55:47;;;;;;;19.85;13.05;;;;;;;;;;4337463;33;20156;-82
2021/09/11 10:58:20;;;;;;;19.00;12.77;;;;;;;;;;4351966;33;20181;-82
2021/09/11 11:01:12;;;;;;;16.48;12.95;;;;;;;;;;4337978;33;20173;-83
2021/09/11 11:03:39;;;;;;;15.27;12.37;;;;;;;;;;4333834;33;20155;-81
2021/09/11 11:06:04;;;;;;;18.58;13.40;;;;;;;;;;4347092;33;20131;-84
2021/09/11 11:08:31;;;;;;;17.58;13.57;;;;;;;;;;4346539;33;20127;-81
2021/09/11 11:10:57;;;;;;;20.05;14.40;;;;;;;;;;4345950;33;20142;-80
2021/09/11 11:13:23;;;;;;;21.33;15.57;;;;;;;;;;4331867;33;20483;-80
2021/09/11 11:15:55;;;;;;;19.33;14.70;;;;;;;;;;4346144;33;20500;-81
2021/09/11 11:18:23;;;;;;;23.55;14.32;;;;;;;;;;4345792;33;20151;-81
2021/09/11 11:20:48;;;;;;;18.83;14.13;;;;;;;;;;4345755;33;20186;-82
2021/09/11 11:23:14;;;;;;;17.30;11.90;;;;;;;;;;4345452;33;20162;-79
2021/09/11 11:25:39;;;;;;;16.27;11.52;;;;;;;;;;4345850;33;20140;-81
2021/09/11 11:28:06;;;;;;;16.15;10.98;;;;;;;;;;4345899;33;20154;-81
2021/09/11 11:30:32;;;;;;;15.90;9.93;;;;;;;;;;4345969;33;20128;-82
2021/09/11 11:32:58;;;;;;;14.10;10.23;;;;;;;;;;4345401;33;20186;-82
2021/09/11 11:35:23;;;;;;;16.62;10.32;;;;;;;;;;4345492;33;20152;-82
2021/09/11 11:37:48;;;;;;;12.68;9.80;;;;;;;;;;4345077;33;20654;-82
2021/09/11 11:40:15;;;;;;;15.80;10.77;;;;;;;;;;4331974;33;20197;-81
2021/09/11 11:42:42;;;;;;;14.50;9.90;;;;;;;;;;4345297;33;20153;-81
2021/09/11 11:45:09;;;;;;;11.07;9.60;;;;;;;;;;4345288;33;20503;-83
2021/09/11 11:47:41;;;;;;;7.62;5.87;;;;;;;;;;4345070;33;20665;-82
2021/09/11 11:50:07;;;;;;;7.93;4.90;;;;;;;;;;4344649;33;20556;-82
2021/09/11 11:52:34;;;;;;;5.75;3.83;;;;;;;;;;4331782;33;20175;-81
2021/09/11 11:55:05;;;;;;;5.80;3.40;;;;;;;;;;4344960;33;20140;-81
2021/09/11 11:57:30;;;;;;;4.68;3.60;;;;;;;;;;4345618;33;20127;-83
2021/09/11 11:59:59;;;;;;;8.82;3.85;;;;;;;;;;4344921;33;20169;-82
2021/09/11 12:02:28;;;;;;;5.12;3.22;;;;;;;;;;4331716;33;20573;-82
2021/09/11 12:05:09;;;;;;;6.05;3.50;;;;;;;;;;4345021;33;20154;-83
2021/09/11 12:07:55;;;;;;;4.65;3.17;;;;;;;;;;4345747;33;20542;-82
2021/09/11 12:10:24;;;;;;;6.43;3.00;;;;;;;;;;4331073;33;20234;-83
2021/09/11 12:12:56;;;;;;;5.65;3.33;;;;;;;;;;4345281;33;20197;-82
2021/09/11 12:15:23;;;;;;;4.53;3.17;;;;;;;;;;4345390;33;20225;-83
2021/09/11 12:17:51;;;;;;;3.75;2.53;;;;;;;;;;4347087;33;20717;-83
2021/09/11 12:20:16;;;;;;;3.53;2.28;;;;;;;;;;4347492;33;20143;-83
2021/09/11 12:22:42;;;;;;;2.95;1.98;;;;;;;;;;4347407;33;20213;-82
2021/09/11 12:25:07;;;;;;;3.97;2.03;;;;;;;;;;4347445;33;20473;-82
2021/09/11 12:27:33;;;;;;;4.10;1.90;;;;;;;;;;4347974;33;20135;-83
2021/09/11 12:30:05;;;;;;;2.10;1.90;;;;;;;;;;4347578;33;20183;-82
2021/09/11 12:32:31;;;;;;;6.87;4.60;;;;;;;;;;4334050;33;20156;-81
2021/09/11 12:35:04;;;;;;;2.95;2.25;;;;;;;;;;4348705;33;20136;-81
2021/09/11 12:37:30;;;;;;;3.80;2.55;;;;;;;;;;4334309;33;20174;-82
2021/09/11 12:39:58;;;;;;;3.30;2.70;;;;;;;;;;4347669;33;20127;-81
2021/09/11 12:42:23;;;;;;;7.22;2.83;;;;;;;;;;4347311;33;20206;-82
2021/09/11 12:44:49;;;;;;;4.50;3.50;;;;;;;;;;4347097;33;20136;-81
2021/09/11 12:47:14;;;;;;;4.97;3.40;;;;;;;;;;4347254;33;20458;-80
2021/09/11 12:49:41;;;;;;;4.30;3.65;;;;;;;;;;4347281;33;20151;-82
2021/09/11 12:52:08;;;;;;;5.22;3.85;;;;;;;;;;4346990;33;20434;-81
2021/09/11 12:54:33;;;;;;;4.72;4.12;;;;;;;;;;4347390;33;20186;-82
2021/09/11 12:56:58;;;;;;;6.55;4.43;;;;;;;;;;4347288;33;20251;-81
2021/09/11 12:59:24;;;;;;;6.03;5.30;;;;;;;;;;4346751;33;20142;-83
2021/09/11 13:01:49;;;;;;;8.70;5.70;;;;;;;;;;4347873;33;20154;-82
2021/09/11 13:04:16;;;;;;;8.48;6.65;;;;;;;;;;4347077;33;20148;-81
2021/09/11 13:06:42;;;;;;;9.10;5.95;;;;;;;;;;4346531;33;20139;-82
2021/09/11 13:09:08;;;;;;;10.68;6.22;;;;;;;;;;4347244;33;20465;-81
2021/09/11 13:11:34;;;;;;;9.00;6.43;;;;;;;;;;4346983;33;20161;-83
2021/09/11 13:13:59;;;;;;;8.63;6.80;;;;;;;;;;4346893;33;20140;-82
2021/09/11 13:16:31;;;;;;;9.13;6.40;;;;;;;;;;4333225;33;20505;-83
2021/09/11 13:18:57;;;;;;;10.20;7.03;;;;;;;;;;4347059;33;20123;-83
2021/09/11 13:21:22;;;;;;;9.57;6.90;;;;;;;;;;4347367;33;20193;-80
2021/09/11 13:23:49;;;;;;;11.45;7.40;;;;;;;;;;4347888;33;20267;-82
2021/09/11 13:26:16;;;;;;;8.48;6.10;;;;;;;;;;4346307;33;20128;-81
2021/09/11 13:28:42;;;;;;;8.98;7.03;;;;;;;;;;4346125;33;20155;-81
2021/09/11 13:31:08;;;;;;;9.15;6.47;;;;;;;;;;4346687;33;20150;-81
2021/09/11 13:33:33;;;;;;;7.20;6.40;;;;;;;;;;4346483;33;20135;-83
2021/09/11 13:35:59;;;;;;;8.55;6.28;;;;;;;;;;4346628;33;20202;-83
2021/09/11 13:38:25;;;;;;;10.48;6.93;;;;;;;;;;4346595;33;20486;-82
2021/09/11 13:40:50;;;;;;;10.52;6.45;;;;;;;;;;4332777;33;20611;-84
2021/09/11 13:43:20;;;;;;;12.00;8.07;;;;;;;;;;4346259;33;20140;-85
2021/09/11 13:45:45;;;;;;;9.32;7.43;;;;;;;;;;4346648;33;20128;-82
2021/09/11 13:48:11;;;;;;;12.80;8.35;;;;;;;;;;4346403;33;20127;-83
2021/09/11 13:50:36;;;;;;;10.65;7.28;;;;;;;;;;4337649;33;20163;-82
2021/09/11 13:53:02;;;;;;;10.88;8.05;;;;;;;;;;4331822;33;20136;-83
2021/09/11 13:55:28;;;;;;;12.50;7.95;;;;;;;;;;4331457;33;20144;-82
2021/09/11 13:57:53;;;;;;;10.32;8.20;;;;;;;;;;4331494;33;20597;-82
2021/09/11 14:00:28;;;;;;;10.93;8.55;;;;;;;;;;4331395;33;20198;-83
2021/09/11 14:02:53;;;;;;;10.57;8.13;;;;;;;;;;4331085;33;20187;-81
2021/09/11 14:05:19;;;;;;;11.80;8.20;;;;;;;;;;4331596;33;20187;-82
2021/09/11 14:07:44;;;;;;;12.32;7.82;;;;;;;;;;4331102;33;20162;-83
2021/09/11 14:10:19;;;;;;;11.82;8.10;;;;;;;;;;4317669;33;20163;-83
2021/09/11 14:12:45;;;;;;;12.82;9.32;;;;;;;;;;4331402;33;20210;-83
2021/09/11 14:15:11;;;;;;;13.30;10.38;;;;;;;;;;4332347;33;20538;-82
2021/09/11 14:17:36;;;;;;;14.20;10.35;;;;;;;;;;4331066;33;20135;-82
2021/09/11 14:20:02;;;;;;;12.88;9.80;;;;;;;;;;4331258;33;20128;-82
2021/09/11 14:22:27;;;;;;;15.20;10.18;;;;;;;;;;4331615;33;20234;-82